createdAt,value
2018-12-16T00:01:25.089Z,15.65
2018-12-16T00:03:59.821Z,21.15
2018-12-16T00:06:34.276Z,39.45
2018-12-16T00:09:09.332Z,21.95
2018-12-16T00:11:44.176Z,20.17
2018-12-16T00:14:18.745Z,23.15
2018-12-16T00:16:53.545Z,19.15
2018-12-16T00:22:14.117Z,44.67
2018-12-16T00:24:48.655Z,23.22
2018-12-16T00:27:23.253Z,21.10
2018-12-16T00:29:57.820Z,21.80
2018-12-16T00:32:32.293Z,22.25
2018-12-16T00:35:07.128Z,22.52
2018-12-16T00:37:41.673Z,18.10
2018-12-16T00:40:16.045Z,16.42
2018-12-16T00:42:50.458Z,21.57
2018-12-16T00:45:24.956Z,25.02
2018-12-16T00:47:59.260Z,51.33
2018-12-16T00:50:33.796Z,64.85
2018-12-16T00:53:08.439Z,56.30
2018-12-16T00:55:42.805Z,24.37
2018-12-16T00:58:17.244Z,16.57
2018-12-16T01:00:51.732Z,16.57
2018-12-16T01:03:26.387Z,16.57
2018-12-16T01:06:01.144Z,18.85
2018-12-16T01:08:35.605Z,19.70
2018-12-16T01:11:10.189Z,17.60
2018-12-16T01:13:44.597Z,17.92
2018-12-16T01:16:19.071Z,18.02
2018-12-16T01:18:53.502Z,22.48
2018-12-16T01:21:27.841Z,18.52
2018-12-16T01:24:02.157Z,8.73
2018-12-16T01:26:36.724Z,20.35
2018-12-16T01:29:11.261Z,18.20
2018-12-16T01:31:45.567Z,12.03
2018-12-16T01:34:19.941Z,15.88
2018-12-16T01:36:54.508Z,15.78
2018-12-16T01:39:29.147Z,21.37
2018-12-16T01:42:03.761Z,14.95
2018-12-16T01:44:38.248Z,13.35
2018-12-16T01:47:12.740Z,22.95
2018-12-16T01:49:47.335Z,53.90
2018-12-16T01:52:21.856Z,53.78
2018-12-16T01:54:56.219Z,30.45
2018-12-16T01:57:30.541Z,22.73
2018-12-16T02:00:05.665Z,12.58
2018-12-16T02:02:40.153Z,20.88
2018-12-16T02:05:14.601Z,11.55
2018-12-16T02:07:49.051Z,13.68
2018-12-16T02:10:23.728Z,11.05
2018-12-16T02:12:58.267Z,11.78
2018-12-16T02:15:32.736Z,15.38
2018-12-16T02:18:07.103Z,14.07
2018-12-16T02:20:41.349Z,11.08
2018-12-16T02:23:15.801Z,10.15
2018-12-16T02:25:50.237Z,10.03
2018-12-16T02:28:24.629Z,11.70
2018-12-16T02:30:59.007Z,13.18
2018-12-16T02:33:33.501Z,11.85
2018-12-16T02:36:07.916Z,8.43
2018-12-16T02:38:42.356Z,10.03
2018-12-16T02:41:16.677Z,7.80
2018-12-16T02:43:51.168Z,9.48
2018-12-16T02:46:25.556Z,11.55
2018-12-16T02:48:59.928Z,20.60
2018-12-16T02:51:34.258Z,31.17
2018-12-16T02:54:08.638Z,41.48
2018-12-16T02:56:44.197Z,17.98
2018-12-16T02:59:18.596Z,9.53
2018-12-16T03:01:53.035Z,7.87
2018-12-16T03:04:27.561Z,10.38
2018-12-16T03:07:01.976Z,11.12
2018-12-16T03:09:36.563Z,10.90
2018-12-16T03:12:11.098Z,11.50
2018-12-16T03:14:45.668Z,9.48
2018-12-16T03:17:20.220Z,9.83
2018-12-16T03:19:54.699Z,8.93
2018-12-16T03:22:29.380Z,12.23
2018-12-16T03:25:04.801Z,30.00
2018-12-16T03:27:39.329Z,10.72
2018-12-16T03:30:14.057Z,15.85
2018-12-16T03:32:48.491Z,8.78
2018-12-16T03:35:22.870Z,28.75
2018-12-16T03:37:57.140Z,15.45
2018-12-16T03:40:31.800Z,22.80
2018-12-16T03:43:06.489Z,28.27
2018-12-16T03:45:40.762Z,11.18
2018-12-16T03:48:15.228Z,20.55
2018-12-16T03:50:49.659Z,42.58
2018-12-16T03:53:24.107Z,61.05
2018-12-16T03:55:58.454Z,31.30
2018-12-16T03:58:32.989Z,22.00
2018-12-16T04:01:07.532Z,9.43
2018-12-16T04:03:42.044Z,8.63
2018-12-16T04:06:16.354Z,12.00
2018-12-16T04:08:50.766Z,9.10
2018-12-16T04:11:25.080Z,11.93
2018-12-16T04:13:59.731Z,6.65
2018-12-16T04:16:34.075Z,8.68
2018-12-16T04:19:08.412Z,9.45
2018-12-16T04:21:42.857Z,7.40
2018-12-16T04:24:17.213Z,10.05
2018-12-16T04:26:51.804Z,12.65
2018-12-16T04:29:26.568Z,7.72
2018-12-16T04:32:01.229Z,9.65
2018-12-16T04:34:35.727Z,9.33
2018-12-16T04:37:10.161Z,12.65
2018-12-16T04:39:44.756Z,14.28
2018-12-16T04:42:19.330Z,6.60
2018-12-16T04:44:53.796Z,7.42
2018-12-16T04:47:28.481Z,9.48
2018-12-16T04:50:03.076Z,26.02
2018-12-16T04:52:37.532Z,50.25
2018-12-16T04:55:11.934Z,51.42
2018-12-16T04:57:46.275Z,34.43
2018-12-16T05:00:20.883Z,18.05
2018-12-16T05:02:55.481Z,9.80
2018-12-16T05:05:30.213Z,7.28
2018-12-16T05:08:04.845Z,12.13
2018-12-16T05:10:39.378Z,15.35
2018-12-16T05:13:14.012Z,8.08
2018-12-16T05:15:48.516Z,12.47
2018-12-16T05:18:22.989Z,9.00
2018-12-16T05:20:57.360Z,9.68
2018-12-16T05:23:31.821Z,8.43
2018-12-16T05:26:06.287Z,10.35
2018-12-16T05:28:40.709Z,11.43
2018-12-16T05:31:15.345Z,14.80
2018-12-16T05:33:49.961Z,8.78
2018-12-16T05:36:24.285Z,8.88
2018-12-16T05:38:58.756Z,12.70
2018-12-16T05:41:33.080Z,9.05
2018-12-16T05:44:07.768Z,16.70
2018-12-16T05:46:42.342Z,6.60
2018-12-16T05:49:16.724Z,9.53
2018-12-16T05:51:51.248Z,10.30
2018-12-16T05:54:25.838Z,16.90
2018-12-16T05:59:44.766Z,23.27
2018-12-16T06:02:19.523Z,16.50
2018-12-16T06:04:54.114Z,8.48
2018-12-16T06:07:28.648Z,12.90
2018-12-16T06:10:18.243Z,8.90
2018-12-16T06:12:52.960Z,14.58
2018-12-16T06:15:27.512Z,10.38
2018-12-16T06:18:02.328Z,8.63
2018-12-16T06:20:36.943Z,6.55
2018-12-16T06:23:11.397Z,10.10
2018-12-16T06:25:45.956Z,8.45
2018-12-16T06:28:20.570Z,7.83
2018-12-16T06:30:55.318Z,13.75
2018-12-16T06:33:29.944Z,10.60
2018-12-16T06:36:04.650Z,8.48
2018-12-16T06:38:39.012Z,7.95
2018-12-16T06:41:13.596Z,7.72
2018-12-16T06:43:48.220Z,9.33
2018-12-16T06:46:22.710Z,13.10
2018-12-16T06:48:57.197Z,36.28
2018-12-16T06:51:31.592Z,179.93
2018-12-16T06:54:05.910Z,31.02
2018-12-16T06:56:40.237Z,22.65
2018-12-16T06:59:14.924Z,22.50
2018-12-16T07:01:49.323Z,7.40
2018-12-16T07:04:23.800Z,9.05
2018-12-16T07:06:58.800Z,8.68
2018-12-16T07:09:33.145Z,10.75
2018-12-16T07:12:07.717Z,7.80
2018-12-16T07:14:42.303Z,10.50
2018-12-16T07:17:17.002Z,13.32
2018-12-16T07:19:51.592Z,17.37
2018-12-16T07:22:25.939Z,11.08
2018-12-16T07:25:00.383Z,14.35
2018-12-16T07:27:34.995Z,15.63
2018-12-16T07:30:09.657Z,16.30
2018-12-16T07:32:44.093Z,14.30
2018-12-16T07:35:18.512Z,17.05
2018-12-16T07:37:53.017Z,13.38
2018-12-16T07:40:27.627Z,24.00
2018-12-16T07:43:02.142Z,13.50
2018-12-16T07:45:36.652Z,10.20
2018-12-16T07:48:11.307Z,11.83
2018-12-16T07:50:45.909Z,13.80
2018-12-16T07:53:20.437Z,97.37
2018-12-16T07:55:55.233Z,43.92
2018-12-16T07:58:29.805Z,33.83
2018-12-16T08:01:04.609Z,17.17
2018-12-16T08:03:39.705Z,11.40
2018-12-16T08:06:14.204Z,8.85
2018-12-16T08:08:48.704Z,12.73
2018-12-16T08:11:23.032Z,14.50
2018-12-16T08:13:57.468Z,12.82
2018-12-16T08:16:31.872Z,11.00
2018-12-16T08:19:07.168Z,25.65
2018-12-16T08:21:41.819Z,22.98
2018-12-16T08:24:22.955Z,20.95
2018-12-16T08:26:52.787Z,14.85
2018-12-16T08:29:27.375Z,19.27
2018-12-16T08:32:01.820Z,12.30
2018-12-16T08:34:36.372Z,17.12
2018-12-16T08:37:10.840Z,17.80
2018-12-16T08:39:45.163Z,20.85
2018-12-16T08:42:19.620Z,17.57
2018-12-16T08:44:54.164Z,15.70
2018-12-16T08:47:33.126Z,22.40
2018-12-16T08:50:05.338Z,16.70
2018-12-16T08:52:39.719Z,43.48
2018-12-16T08:55:14.029Z,65.25
2018-12-16T08:57:48.328Z,27.98
2018-12-16T09:00:22.775Z,15.58
2018-12-16T09:02:57.189Z,22.40
2018-12-16T09:05:31.560Z,21.95
2018-12-16T09:08:05.897Z,18.10
2018-12-16T09:10:40.353Z,17.25
2018-12-16T09:13:14.701Z,8.60
2018-12-16T09:15:49.208Z,38.50
2018-12-16T09:18:23.531Z,24.40
2018-12-16T09:20:58.107Z,19.35
2018-12-16T09:23:32.556Z,28.87
2018-12-16T09:26:07.077Z,39.67
2018-12-16T09:28:41.645Z,29.92
2018-12-16T09:31:15.868Z,13.08
2018-12-16T09:33:50.167Z,36.65
2018-12-16T09:36:24.440Z,26.80
2018-12-16T09:38:58.930Z,16.00
2018-12-16T09:41:33.282Z,14.78
2018-12-16T09:44:07.752Z,12.80
2018-12-16T09:46:42.294Z,13.72
2018-12-16T09:49:16.664Z,12.47
2018-12-16T09:51:51.097Z,17.42
2018-12-16T09:54:25.541Z,66.65
2018-12-16T09:56:59.804Z,78.55
2018-12-16T09:59:34.211Z,48.60
2018-12-16T10:02:08.533Z,19.82
2018-12-16T10:04:42.976Z,11.15
2018-12-16T10:07:17.464Z,12.47
2018-12-16T10:09:51.961Z,15.48
2018-12-16T10:12:26.290Z,15.60
2018-12-16T10:15:00.768Z,17.70
2018-12-16T10:17:35.296Z,41.40
2018-12-16T10:20:11.104Z,13.55
2018-12-16T10:22:45.518Z,13.60
2018-12-16T10:25:20.912Z,26.90
2018-12-16T10:27:55.236Z,35.05
2018-12-16T10:30:29.708Z,45.40
2018-12-16T10:33:04.197Z,22.62
2018-12-16T10:35:38.800Z,19.52
2018-12-16T10:38:13.128Z,14.58
2018-12-16T10:40:47.675Z,20.45
2018-12-16T10:43:22.018Z,18.77
2018-12-16T10:45:56.443Z,24.25
2018-12-16T10:48:30.792Z,20.77
2018-12-16T10:51:05.086Z,15.93
2018-12-16T10:53:39.594Z,21.37
2018-12-16T10:56:14.271Z,26.23
2018-12-16T10:58:48.684Z,35.28
2018-12-16T11:01:28.212Z,59.80
2018-12-16T11:04:02.656Z,32.40
2018-12-16T11:06:37.172Z,25.57
2018-12-16T11:09:11.529Z,24.75
2018-12-16T11:11:45.869Z,22.02
2018-12-16T11:14:20.320Z,25.15
2018-12-16T11:16:54.737Z,25.70
2018-12-16T11:19:29.093Z,25.85
2018-12-16T11:22:03.562Z,31.25
2018-12-16T11:24:37.960Z,27.50
2018-12-16T11:27:12.431Z,40.48
2018-12-16T11:29:46.801Z,36.85
2018-12-16T11:32:21.193Z,45.65
2018-12-16T11:34:55.744Z,38.55
2018-12-16T11:37:30.299Z,33.15
2018-12-16T11:40:05.464Z,27.62
2018-12-16T11:42:39.893Z,26.93
2018-12-16T11:45:14.469Z,27.25
2018-12-16T11:47:49.308Z,54.27
2018-12-16T11:50:23.904Z,31.62
2018-12-16T11:52:58.292Z,29.80
2018-12-16T11:55:32.865Z,25.15
2018-12-16T11:58:07.171Z,35.17
2018-12-16T12:00:41.500Z,19.92
2018-12-16T12:03:16.117Z,37.70
2018-12-16T12:05:50.449Z,26.55
2018-12-16T12:08:24.860Z,7.75
2018-12-16T12:10:59.392Z,4.80
2018-12-16T12:13:33.716Z,5.20
2018-12-16T12:16:08.152Z,4.00
2018-12-16T12:18:42.502Z,3.27
2018-12-16T12:21:17.520Z,3.05
2018-12-16T12:23:51.888Z,3.98
2018-12-16T12:26:26.313Z,5.60
2018-12-16T12:29:00.728Z,4.50
2018-12-16T12:31:35.368Z,9.63
2018-12-16T12:34:09.856Z,3.67
2018-12-16T12:36:44.216Z,3.35
2018-12-16T12:39:18.741Z,7.90
2018-12-16T12:41:53.024Z,4.08
2018-12-16T12:44:27.442Z,1.92
2018-12-16T12:47:01.892Z,4.28
2018-12-16T12:49:36.472Z,3.62
2018-12-16T12:52:11.136Z,2.90
2018-12-16T12:54:45.485Z,7.65
2018-12-16T12:57:20.003Z,20.90
2018-12-16T12:59:54.548Z,10.80
2018-12-16T13:02:29.242Z,12.53
2018-12-16T13:05:03.982Z,9.00
2018-12-16T13:07:38.493Z,7.45
2018-12-16T13:10:13.033Z,11.43
2018-12-16T13:12:47.444Z,8.23
2018-12-16T13:15:21.900Z,11.93
2018-12-16T13:17:56.377Z,5.83
2018-12-16T13:20:30.859Z,6.55
2018-12-16T13:23:05.222Z,2.30
2018-12-16T13:25:51.036Z,7.08
2018-12-16T13:28:25.317Z,8.03
2018-12-16T13:30:59.945Z,1.50
2018-12-16T13:33:34.511Z,5.75
2018-12-16T13:36:10.545Z,7.33
2018-12-16T13:38:45.163Z,6.22
2018-12-16T13:41:19.673Z,3.12
2018-12-16T13:43:54.005Z,2.02
2018-12-16T13:46:28.455Z,2.10
2018-12-16T13:49:03.148Z,3.17
2018-12-16T13:51:37.657Z,7.83
2018-12-16T13:54:11.996Z,4.75
2018-12-16T13:56:46.343Z,16.75
2018-12-16T13:59:20.857Z,31.73
2018-12-16T14:01:55.287Z,35.55
2018-12-16T14:04:29.673Z,96.78
2018-12-16T14:07:04.300Z,23.10
2018-12-16T14:09:38.872Z,31.07
2018-12-16T14:12:13.238Z,52.30
2018-12-16T14:14:47.651Z,62.30
2018-12-16T14:17:22.210Z,84.72
2018-12-16T14:19:56.817Z,55.92
2018-12-16T14:22:31.309Z,41.90
2018-12-16T14:25:06.196Z,45.03
2018-12-16T14:27:40.656Z,224.62
2018-12-16T14:30:15.245Z,120.45
2018-12-16T14:32:49.608Z,184.72
2018-12-16T14:35:24.428Z,38.55
2018-12-16T14:37:59.272Z,38.78
2018-12-16T14:40:33.898Z,10.98
2018-12-16T14:43:08.374Z,8.70
2018-12-16T14:45:43.188Z,10.88
2018-12-16T14:48:17.642Z,19.25
2018-12-16T14:50:52.023Z,7.17
2018-12-16T14:53:26.516Z,26.52
2018-12-16T14:56:00.943Z,18.10
2018-12-16T14:58:35.360Z,18.42
2018-12-16T15:01:09.870Z,7.28
2018-12-16T15:03:44.213Z,22.10
2018-12-16T15:06:18.718Z,14.98
2018-12-16T15:08:53.368Z,18.12
2018-12-16T15:11:27.932Z,9.60
2018-12-16T15:14:02.205Z,12.80
2018-12-16T15:16:36.712Z,13.78
2018-12-16T15:19:11.225Z,9.28
2018-12-16T15:21:45.653Z,10.63
2018-12-16T15:24:20.169Z,12.63
2018-12-16T15:26:54.599Z,19.62
2018-12-16T15:29:29.151Z,34.88
2018-12-16T15:32:03.529Z,17.77
2018-12-16T15:34:38.048Z,44.93
2018-12-16T15:37:12.720Z,23.92
2018-12-16T15:39:47.227Z,18.00
2018-12-16T15:42:21.496Z,9.45
2018-12-16T15:44:55.957Z,17.98
2018-12-16T15:47:30.469Z,65.20
2018-12-16T15:50:06.298Z,31.68
2018-12-16T15:52:40.881Z,41.23
2018-12-16T15:55:15.285Z,37.73
2018-12-16T15:57:49.708Z,58.65
2018-12-16T16:00:25.797Z,38.48
2018-12-16T16:03:02.276Z,37.93
2018-12-16T16:05:36.638Z,35.13
2018-12-16T16:08:16.479Z,48.98
2018-12-16T16:10:47.514Z,35.48
2018-12-16T16:13:21.892Z,33.70
2018-12-16T16:15:56.345Z,36.83
2018-12-16T16:18:30.768Z,33.10
2018-12-16T16:21:05.069Z,40.05
2018-12-16T16:23:39.504Z,53.68
2018-12-16T16:26:16.404Z,44.08
2018-12-16T16:28:50.654Z,45.83
2018-12-16T16:31:25.249Z,59.67
2018-12-16T16:33:59.850Z,57.48
2018-12-16T16:36:34.270Z,43.83
2018-12-16T16:39:08.797Z,40.58
2018-12-16T16:41:43.228Z,28.07
2018-12-16T16:44:17.747Z,30.68
2018-12-16T16:46:52.068Z,34.18
2018-12-16T16:49:26.594Z,36.13
2018-12-16T16:52:01.116Z,29.85
2018-12-16T16:54:35.644Z,36.13
2018-12-16T16:57:10.045Z,30.62
2018-12-16T16:59:44.373Z,59.55
2018-12-16T17:02:18.892Z,79.17
2018-12-16T17:04:53.221Z,65.25
2018-12-16T17:07:27.800Z,61.55
2018-12-16T17:10:02.116Z,30.85
2018-12-16T17:12:36.749Z,33.63
2018-12-16T17:15:11.393Z,30.17
2018-12-16T17:17:45.955Z,32.78
2018-12-16T17:20:20.452Z,36.42
2018-12-16T17:22:55.171Z,31.37
2018-12-16T17:25:29.660Z,67.75
2018-12-16T17:28:04.272Z,63.58
2018-12-16T17:30:38.545Z,70.67
2018-12-16T17:33:13.167Z,79.87
2018-12-16T17:35:47.688Z,78.37
2018-12-16T17:38:22.300Z,73.12
2018-12-16T17:40:56.866Z,72.75
2018-12-16T17:43:31.259Z,68.10
2018-12-16T17:46:05.760Z,118.08
2018-12-16T17:48:40.284Z,156.10
2018-12-16T17:51:14.619Z,87.78
2018-12-16T17:53:48.948Z,73.67
2018-12-16T17:56:23.360Z,58.78
2018-12-16T17:58:57.663Z,60.03
2018-12-16T18:01:32.093Z,55.73
2018-12-16T18:04:09.901Z,63.40
2018-12-16T18:06:44.369Z,67.15
2018-12-16T18:09:18.670Z,62.15
2018-12-16T18:11:53.101Z,65.32
2018-12-16T18:14:27.595Z,58.70
2018-12-16T18:17:02.952Z,57.05
2018-12-16T18:19:38.367Z,65.22
2018-12-16T18:22:14.115Z,53.92
2018-12-16T18:24:49.053Z,63.95
2018-12-16T18:27:23.397Z,54.45
2018-12-16T18:29:57.788Z,76.30
2018-12-16T18:32:32.189Z,47.17
2018-12-16T18:35:06.878Z,90.83
2018-12-16T18:37:41.753Z,61.23
2018-12-16T18:40:16.321Z,36.70
2018-12-16T18:42:50.988Z,49.27
2018-12-16T18:45:25.434Z,73.40
2018-12-16T18:47:59.876Z,75.00
2018-12-16T18:50:34.256Z,56.98
2018-12-16T18:53:08.804Z,45.88
2018-12-16T18:55:43.048Z,36.23
2018-12-16T18:58:17.344Z,33.48
2018-12-16T19:00:51.836Z,28.25
2018-12-16T19:03:26.167Z,36.80
2018-12-16T19:06:00.508Z,33.18
2018-12-16T19:08:34.873Z,37.75
2018-12-16T19:11:09.545Z,45.30
2018-12-16T19:13:44.600Z,46.65
2018-12-16T19:16:19.085Z,55.33
2018-12-16T19:18:54.028Z,41.05
2018-12-16T19:21:28.440Z,39.25
2018-12-16T19:24:02.856Z,36.30
2018-12-16T19:26:37.301Z,31.90
2018-12-16T19:29:11.653Z,41.68
2018-12-16T19:31:46.037Z,63.35
2018-12-16T19:34:20.460Z,63.92
2018-12-16T19:36:54.883Z,65.37
2018-12-16T19:39:29.448Z,54.88
2018-12-16T19:42:03.915Z,48.20
2018-12-16T19:44:38.517Z,45.55
2018-12-16T19:47:12.960Z,40.90
2018-12-16T19:49:47.464Z,37.30
2018-12-16T19:52:21.822Z,36.77
2018-12-16T19:54:57.069Z,42.85
2018-12-16T19:57:31.385Z,39.88
2018-12-16T20:00:06.356Z,38.00
2018-12-16T20:02:40.707Z,96.53
2018-12-16T20:05:21.534Z,130.63
2018-12-16T20:07:55.995Z,74.20
2018-12-16T20:10:30.509Z,177.02
2018-12-16T20:13:04.924Z,87.80
2018-12-16T20:15:39.382Z,74.15
2018-12-16T20:18:13.792Z,61.68
2018-12-16T20:20:48.393Z,52.48
2018-12-16T20:23:23.034Z,112.30
2018-12-16T20:25:57.533Z,84.28
2018-12-16T20:28:31.985Z,75.30
2018-12-16T20:31:06.676Z,58.92
2018-12-16T20:33:41.300Z,53.25
2018-12-16T20:36:15.729Z,70.92
2018-12-16T20:38:50.253Z,74.25
2018-12-16T20:41:24.615Z,88.12
2018-12-16T20:43:59.223Z,59.93
2018-12-16T20:46:33.704Z,54.33
2018-12-16T20:49:08.263Z,47.27
2018-12-16T20:51:42.530Z,53.08
2018-12-16T20:54:16.949Z,40.67
2018-12-16T20:56:51.339Z,38.85
2018-12-16T20:59:26.056Z,35.85
2018-12-16T21:09:06.644Z,35.00
2018-12-16T21:11:46.424Z,34.55
2018-12-16T21:14:26.312Z,36.58
2018-12-16T21:17:06.178Z,36.00
2018-12-16T21:19:40.740Z,43.68
2018-12-16T21:22:15.312Z,41.92
2018-12-16T21:24:49.954Z,37.25
2018-12-16T21:27:26.157Z,45.40
2018-12-16T21:30:00.728Z,31.40
2018-12-16T21:32:35.188Z,33.75
2018-12-16T21:35:09.473Z,38.90
2018-12-16T21:37:43.866Z,41.53
2018-12-16T21:40:18.281Z,39.18
2018-12-16T21:42:52.741Z,26.05
2018-12-16T21:45:27.090Z,26.95
2018-12-16T21:48:01.759Z,31.62
2018-12-16T21:50:36.181Z,35.63
2018-12-16T21:53:10.711Z,34.45
2018-12-16T21:55:45.227Z,66.55
2018-12-16T21:58:19.713Z,68.15
2018-12-16T22:00:54.305Z,40.90
2018-12-16T22:03:28.951Z,40.65
2018-12-16T22:06:03.512Z,26.62
2018-12-16T22:08:37.949Z,31.85
2018-12-16T22:11:13.270Z,33.88
2018-12-16T22:13:47.726Z,34.53
2018-12-16T22:16:22.085Z,30.95
2018-12-16T22:18:56.585Z,47.23
2018-12-16T22:21:31.005Z,69.72
2018-12-16T22:24:05.489Z,64.40
2018-12-16T22:26:40.027Z,53.33
2018-12-16T22:29:14.712Z,160.48
2018-12-16T22:31:49.164Z,52.67
2018-12-16T22:34:23.700Z,27.02
2018-12-16T22:36:58.320Z,33.10
2018-12-16T22:39:32.897Z,32.23
2018-12-16T22:42:07.391Z,36.40
2018-12-16T22:44:41.951Z,27.62
2018-12-16T22:47:16.420Z,34.92
2018-12-16T22:49:50.953Z,24.35
2018-12-16T22:52:25.572Z,32.10
2018-12-16T22:55:00.212Z,41.08
2018-12-16T22:57:34.638Z,70.70
2018-12-16T23:00:13.498Z,55.33
2018-12-16T23:02:48.208Z,25.00
2018-12-16T23:05:22.707Z,23.77
2018-12-16T23:07:58.117Z,27.67
2018-12-16T23:10:32.912Z,30.25
2018-12-16T23:13:07.561Z,35.10
2018-12-16T23:15:42.198Z,38.23
2018-12-16T23:18:16.675Z,35.43
2018-12-16T23:20:51.357Z,36.28
2018-12-16T23:23:25.894Z,39.00
2018-12-16T23:26:00.372Z,35.55
2018-12-16T23:28:34.936Z,41.15
2018-12-16T23:31:09.516Z,33.78
2018-12-16T23:33:44.133Z,34.08
2018-12-16T23:36:18.612Z,38.10
2018-12-16T23:38:53.155Z,30.82
2018-12-16T23:41:27.968Z,32.55
2018-12-16T23:44:02.634Z,33.08
2018-12-16T23:46:37.293Z,37.85
2018-12-16T23:49:11.816Z,34.40
2018-12-16T23:51:46.313Z,31.37
2018-12-16T23:54:20.959Z,25.97
2018-12-16T23:56:55.658Z,33.38
2018-12-16T23:59:30.018Z,53.38
